Time;durP1;ratioP1;P1;durP2;ratioP2;P2;SDS_P1;SDS_P2;PMS_P1;PMS_P2;Temp;Humidity;BMP_temperature;BMP_pressure;BME280_temperature;BME280_humidity;BME280_pressure;Samples;Min_cycle;Max_cycle;Signal;HPM_P1;HPM_P2
2022/12/17 14:25:03;;;;;;;32.35;19.37;;;;;;;0.44;100.00;98961.67;1784071;78;23372;-68
2022/12/17 14:27:34;;;;;;;30.50;18.40;;;;;;;0.55;100.00;98964.63;1748111;81;21928;-69
2022/12/17 14:30:03;;;;;;;28.10;17.62;;;;;;;0.71;100.00;98948.73;1751552;80;21027;-68
2022/12/17 14:32:33;;;;;;;23.42;14.28;;;;;;;0.83;100.00;98944.77;1741579;81;21006;-70
2022/12/17 14:34:59;;;;;;;26.77;13.68;;;;;;;0.96;100.00;98943.23;1687152;81;21368;-70
2022/12/17 14:37:26;;;;;;;16.93;11.90;;;;;;;1.06;100.00;98943.52;1726509;81;21033;-68
2022/12/17 14:39:57;;;;;;;13.90;10.10;;;;;;;1.14;100.00;98952.54;1726720;83;21570;-69
2022/12/17 14:42:25;;;;;;;12.82;9.30;;;;;;;1.21;100.00;98953.25;1726677;83;21676;-68
2022/12/17 14:45:06;;;;;;;14.13;9.13;;;;;;;1.24;100.00;98962.72;1756358;80;21002;-69
2022/12/17 14:47:35;;;;;;;12.70;8.95;;;;;;;1.26;100.00;98955.25;1756673;81;21034;-68
2022/12/17 14:50:12;;;;;;;15.40;9.15;;;;;;;1.29;100.00;98952.11;1757060;81;21014;-69
2022/12/17 14:52:49;;;;;;;12.03;7.95;;;;;;;1.31;100.00;98951.37;1745730;81;21072;-68
2022/12/17 14:55:38;;;;;;;9.95;7.25;;;;;;;1.36;100.00;98961.68;1727720;81;21458;-69
2022/12/17 14:58:15;;;;;;;9.78;7.03;;;;;;;1.34;100.00;98969.16;1784515;80;21106;-69
2022/12/17 15:00:56;;;;;;;10.43;7.45;;;;;;;1.33;100.00;98975.56;1757159;80;20994;-69
2022/12/17 15:03:30;;;;;;;13.28;8.08;;;;;;;1.34;100.00;98986.58;1728596;80;21065;-68
2022/12/17 15:06:02;;;;;;;9.60;7.17;;;;;;;1.40;100.00;98982.97;1724993;81;21007;-69
2022/12/17 15:08:32;;;;;;;8.78;6.78;;;;;;;1.38;100.00;99001.14;1665803;85;21090;-69
2022/12/17 15:10:58;;;;;;;9.58;6.70;;;;;;;1.40;100.00;99004.95;1693029;84;21352;-69
2022/12/17 15:13:24;;;;;;;10.35;6.70;;;;;;;1.41;100.00;99019.48;1703126;82;21452;-69
2022/12/17 15:15:51;;;;;;;11.05;7.95;;;;;;;1.40;100.00;99021.04;1693638;84;22243;-69
2022/12/17 15:18:17;;;;;;;11.22;7.35;;;;;;;1.42;100.00;99022.44;1669603;84;21149;-69
2022/12/17 15:20:44;;;;;;;10.35;7.30;;;;;;;1.43;100.00;99032.64;1693758;84;21087;-69
2022/12/17 15:23:17;;;;;;;11.35;7.28;;;;;;;1.46;100.00;99041.05;1671564;84;21170;-69
2022/12/17 15:25:44;;;;;;;9.05;6.78;;;;;;;1.48;100.00;99036.28;1665813;84;21047;-69
2022/12/17 15:28:11;;;;;;;10.58;7.58;;;;;;;1.47;100.00;99033.30;1675188;85;21094;-69
2022/12/17 15:30:38;;;;;;;12.65;8.78;;;;;;;1.47;100.00;99036.50;1652632;85;21091;-69
2022/12/17 15:33:06;;;;;;;13.72;9.78;;;;;;;1.48;100.00;99024.73;1664456;84;21059;-69
2022/12/17 15:35:33;;;;;;;13.93;10.15;;;;;;;1.45;100.00;99027.88;1662420;84;21088;-69
2022/12/17 15:37:59;;;;;;;13.80;10.30;;;;;;;1.43;100.00;99045.53;1663931;84;21067;-70
2022/12/17 15:40:25;;;;;;;15.75;11.73;;;;;;;1.45;100.00;99048.79;1730007;81;21027;-70
2022/12/17 15:43:10;;;;;;;15.53;10.43;;;;;;;1.49;100.00;99043.27;1717823;81;22247;-71
2022/12/17 15:45:44;;;;;;;16.75;11.73;;;;;;;1.53;100.00;99038.26;1729154;82;21115;-70
2022/12/17 15:48:13;;;;;;;13.70;9.40;;;;;;;1.54;100.00;99037.22;1689308;84;21128;-70
2022/12/17 15:50:39;;;;;;;14.63;9.50;;;;;;;1.53;100.00;99042.28;1673881;83;21436;-70
2022/12/17 15:53:07;;;;;;;15.50;11.78;;;;;;;1.49;100.00;99032.53;1666945;84;21067;-71
2022/12/17 15:55:35;;;;;;;12.45;8.35;;;;;;;1.50;100.00;99030.67;1722191;82;21027;-70
2022/12/17 15:59:16;;;;;;;16.17;11.08;;;;;;;1.59;100.00;99025.80;1808709;79;22973;-70
2022/12/17 16:01:43;;;;;;;17.00;11.33;;;;;;;1.56;100.00;99032.98;1773980;80;21125;-71
2022/12/17 16:04:09;;;;;;;31.17;19.67;;;;;;;1.52;100.00;99044.69;1683562;84;21567;-71
2022/12/17 16:06:36;;;;;;;;;;;;;;;1.55;100.00;99045.56;1680372;84;21144;-71
2022/12/17 16:09:02;;;;;;;9.68;6.28;;;;;;;1.44;100.00;99039.13;1679121;84;20904;-71
2022/12/17 16:11:30;;;;;;;14.93;10.03;;;;;;;1.46;100.00;99053.63;1703756;83;21193;-70
2022/12/17 16:13:57;;;;;;;7.15;5.47;;;;;;;1.47;100.00;99061.47;1709708;83;21062;-69
2022/12/17 16:16:24;;;;;;;7.55;4.95;;;;;;;1.49;100.00;99064.72;1703831;83;21114;-70
2022/12/17 16:18:52;;;;;;;9.93;6.40;;;;;;;1.46;100.00;99072.41;1707553;83;21039;-69
2022/12/17 16:21:19;;;;;;;11.57;7.20;;;;;;;1.43;100.00;99064.30;1711195;83;21484;-70
2022/12/17 16:23:45;;;;;;;8.30;6.33;;;;;;;1.45;100.00;99058.17;1705447;83;22325;-69
2022/12/17 16:26:11;;;;;;;11.43;6.65;;;;;;;1.44;100.00;99052.54;1702321;83;21070;-70
2022/12/17 16:28:39;;;;;;;7.17;4.83;;;;;;;1.44;100.00;99056.56;1705060;83;21062;-70
2022/12/17 16:31:09;;;;;;;6.92;4.65;;;;;;;1.44;100.00;99065.95;1702610;83;21641;-69
2022/12/17 16:36:18;;;;;;;5.20;4.00;;;;;;;1.42;100.00;99064.00;1790755;79;23417;-68
2022/12/17 16:38:48;;;;;;;3.85;2.72;;;;;;;1.39;100.00;99072.52;1731577;82;21011;-69
2022/12/17 16:41:15;;;;;;;5.42;3.85;;;;;;;1.38;100.00;99085.62;1727843;81;21058;-69
2022/12/17 16:43:46;;;;;;;5.78;4.17;;;;;;;1.38;100.00;99081.59;1731487;82;20968;-68
2022/12/17 16:46:31;;;;;;;14.18;10.58;;;;;;;1.40;100.00;99096.95;1732165;82;20991;-69
2022/12/17 16:49:00;;;;;;;;;;;;;;;1.38;100.00;99108.96;1748161;82;20972;-69
2022/12/17 16:51:27;;;;;;;12.45;9.10;;;;;;;1.34;100.00;99123.87;1746671;82;20142;-69
2022/12/17 16:53:54;;;;;;;18.27;10.72;;;;;;;1.30;100.00;99120.82;1724926;82;20983;-69
2022/12/17 16:56:23;;;;;;;25.27;16.17;;;;;;;1.35;100.00;99120.94;1709811;83;21047;-69
2022/12/17 16:58:49;;;;;;;8.35;5.40;;;;;;;1.35;100.00;99116.09;1733435;82;20983;-70
2022/12/17 17:01:21;;;;;;;12.80;9.73;;;;;;;1.35;100.00;99132.19;1725523;82;21043;-70
2022/12/17 17:03:47;;;;;;;8.23;5.33;;;;;;;1.33;100.00;99129.75;1731252;82;21850;-71
2022/12/17 17:06:16;;;;;;;7.70;5.40;;;;;;;1.34;100.00;99140.78;1733119;82;21039;-70
2022/12/17 17:08:42;;;;;;;8.93;4.85;;;;;;;1.32;100.00;99138.83;1735910;80;21573;-68
2022/12/17 17:11:21;;;;;;;6.45;4.62;;;;;;;1.29;100.00;99140.63;1732757;82;21041;-68
2022/12/17 17:13:49;;;;;;;5.47;3.33;;;;;;;1.28;100.00;99139.50;1722044;82;21003;-68
2022/12/17 17:16:16;;;;;;;4.75;3.35;;;;;;;1.30;100.00;99148.16;1742034;82;21030;-69
2022/12/17 17:18:43;;;;;;;4.95;3.20;;;;;;;1.31;100.00;99153.82;1737984;81;21305;-68
2022/12/17 17:21:19;;;;;;;6.15;3.90;;;;;;;1.30;100.00;99166.41;1742835;82;21037;-70
2022/12/17 17:23:46;;;;;;;4.90;2.62;;;;;;;1.27;100.00;99164.70;1706957;83;20984;-69
2022/12/17 17:26:13;;;;;;;4.17;2.75;;;;;;;1.23;100.00;99166.19;1730610;82;21745;-69
2022/12/17 17:28:39;;;;;;;;;;;;;;;1.21;100.00;99169.08;1746791;82;21485;-68
2022/12/17 17:31:09;;;;;;;3.87;2.40;;;;;;;1.21;100.00;99171.77;1743397;81;20403;-69
2022/12/17 17:33:37;;;;;;;3.80;2.10;;;;;;;1.09;100.00;99173.58;1746334;82;21003;-69
2022/12/17 17:36:28;;;;;;;3.42;2.22;;;;;;;1.08;100.00;99169.25;1744705;81;21063;-68
2022/12/17 17:38:54;;;;;;;2.95;1.75;;;;;;;1.07;100.00;99162.23;1724324;82;21059;-68
2022/12/17 17:41:25;;;;;;;2.83;1.67;;;;;;;1.02;100.00;99155.41;1715722;82;21094;-68
2022/12/17 17:43:58;;;;;;;6.08;4.85;;;;;;;0.98;100.00;99166.28;1723277;82;21054;-68
2022/12/17 17:46:24;;;;;;;16.60;10.85;;;;;;;0.95;100.00;99172.09;1739905;82;21063;-69
2022/12/17 17:48:51;;;;;;;34.05;18.85;;;;;;;0.96;100.00;99157.63;1728442;82;21034;-69
2022/12/17 17:51:20;;;;;;;16.82;9.60;;;;;;;0.92;100.00;99154.57;1726295;82;21592;-68
2022/12/17 17:53:49;;;;;;;6.60;3.80;;;;;;;0.92;100.00;99164.50;1728971;82;21022;-69
2022/12/17 17:56:25;;;;;;;2.45;1.35;;;;;;;0.93;100.00;99171.48;1728868;82;21117;-69
2022/12/17 17:58:58;;;;;;;2.67;1.60;;;;;;;0.91;100.00;99187.80;1727692;82;21051;-69
2022/12/17 18:01:30;;;;;;;5.25;3.85;;;;;;;0.92;100.00;99196.11;1720929;83;21174;-68
2022/12/17 21:16:17;;;;;;;22.60;13.85;;;;;;;-1.09;100.00;99560.07;1786048;79;23018;-70
2022/12/17 21:18:43;;;;;;;16.07;10.82;;;;;;;-1.03;100.00;99575.32;1753286;81;21018;-69
2022/12/17 21:21:15;;;;;;;;;;;;;;;-0.87;100.00;99581.63;1759711;80;21093;-70
2022/12/17 21:23:43;;;;;;;15.63;10.48;;;;;;;-0.72;100.00;99592.14;1744027;81;20187;-69
2022/12/17 21:26:13;;;;;;;;;;;;;;;-0.65;100.00;99574.27;1752720;81;21487;-69
2022/12/17 21:28:41;;;;;;;14.87;8.83;;;;;;;-0.56;100.00;99605.94;1752502;81;20142;-70
2022/12/17 21:31:20;;;;;;;15.72;10.93;;;;;;;-0.54;100.00;99601.23;1753069;81;21078;-70
2022/12/17 21:33:48;;;;;;;11.50;8.08;;;;;;;-0.46;100.00;99606.88;1753393;81;21038;-70
2022/12/17 21:36:15;;;;;;;11.18;7.55;;;;;;;-0.41;100.00;99608.95;1755530;80;21062;-70
2022/12/17 21:38:41;;;;;;;11.60;7.83;;;;;;;-0.37;100.00;99622.23;1750911;81;21049;-70
2022/12/17 21:41:11;;;;;;;11.15;8.05;;;;;;;-0.34;100.00;99625.31;1719210;81;21611;-70
2022/12/17 21:43:38;;;;;;;9.98;6.97;;;;;;;-0.31;100.00;99627.58;1749948;81;21548;-70
2022/12/17 21:46:05;;;;;;;11.90;8.40;;;;;;;-0.27;100.00;99630.67;1756854;80;21101;-70
2022/12/17 21:48:31;;;;;;;;;;;;;;;-0.24;100.00;99637.77;1705130;83;21063;-71
2022/12/17 21:50:57;;;;;;;13.20;9.60;;;;;;;-0.20;100.00;99647.55;1709022;82;20507;-70
2022/12/17 21:53:24;;;;;;;13.75;10.13;;;;;;;-0.27;100.00;99661.43;1705865;83;21066;-70
2022/12/17 21:55:50;;;;;;;15.35;10.65;;;;;;;-0.29;100.00;99669.67;1713741;83;21118;-70
2022/12/17 21:58:20;;;;;;;15.45;10.18;;;;;;;-0.29;100.00;99668.34;1706916;83;21855;-71
2022/12/17 22:00:46;;;;;;;14.07;9.85;;;;;;;-0.27;100.00;99678.81;1704551;83;21043;-70
2022/12/17 22:03:13;;;;;;;14.00;10.10;;;;;;;-0.27;100.00;99676.97;1725773;82;20959;-70
2022/12/17 22:05:39;;;;;;;;;;;;;;;-0.31;100.00;99693.11;1724438;82;21043;-70
2022/12/17 22:08:06;;;;;;;14.93;10.20;;;;;;;-0.32;100.00;99692.80;1726205;82;20100;-71
2022/12/17 22:10:32;;;;;;;;;;;;;;;-0.39;100.00;99697.84;1717120;82;21023;-70
2022/12/17 22:15:45;;;;;;;15.23;10.68;;;;;;;-0.50;100.00;99705.41;1716767;82;20106;-70
2022/12/17 22:18:11;;;;;;;14.55;10.03;;;;;;;-0.64;100.00;99721.09;1745356;81;21015;-71
2022/12/17 22:20:38;;;;;;;16.87;10.55;;;;;;;-0.66;100.00;99727.67;1751493;80;21121;-71
2022/12/17 22:23:04;;;;;;;17.25;11.08;;;;;;;-0.67;100.00;99733.52;1717181;82;21043;-71
2022/12/17 22:25:31;;;;;;;;;;;;;;;-0.66;100.00;99729.00;1753680;80;21153;-71
2022/12/17 22:27:57;;;;;;;16.48;11.00;;;;;;;-0.67;100.00;99732.69;1750641;81;20183;-71
2022/12/17 23:19:52;;;;;;;40.60;23.70;;;;;;;-2.24;100.00;99799.06;1792989;78;22210;-71
2022/12/17 23:22:18;;;;;;;36.95;21.15;;;;;;;-2.21;100.00;99806.18;1753897;79;21118;-71
2022/12/17 23:24:45;;;;;;;31.90;19.48;;;;;;;-2.03;100.00;99812.42;1734420;82;21133;-72
2022/12/17 23:27:11;;;;;;;28.75;17.95;;;;;;;-1.88;100.00;99815.88;1693398;80;22212;-72
2022/12/17 23:29:38;;;;;;;24.63;15.48;;;;;;;-1.76;100.00;99826.35;1731653;80;21093;-72
2022/12/17 23:32:05;;;;;;;23.47;14.87;;;;;;;-1.67;100.00;99835.91;1739318;80;21576;-72
2022/12/17 23:34:32;;;;;;;23.32;13.05;;;;;;;-1.59;100.00;99850.94;1739892;80;21117;-72
2022/12/17 23:36:58;;;;;;;21.17;13.32;;;;;;;-1.54;100.00;99839.19;1720210;82;21067;-72
2022/12/17 23:39:24;;;;;;;23.70;14.53;;;;;;;-1.49;100.00;99839.96;1733190;80;21078;-72
2022/12/17 23:41:53;;;;;;;22.17;13.55;;;;;;;-1.48;100.00;99847.76;1731720;82;21031;-72
2022/12/17 23:44:19;;;;;;;20.45;13.03;;;;;;;-1.46;100.00;99848.92;1745443;82;21070;-72
2022/12/17 23:46:46;;;;;;;24.15;14.47;;;;;;;-1.44;100.00;99850.37;1746320;82;21059;-72
2022/12/17 23:49:12;;;;;;;23.47;13.72;;;;;;;-1.44;100.00;99853.04;1750687;80;21597;-72
2022/12/17 23:51:40;;;;;;;32.42;19.45;;;;;;;-1.40;100.00;99862.83;1716083;82;21050;-72
2022/12/17 23:54:06;;;;;;;;;;;;;;;-1.38;100.00;99871.49;1690222;85;20999;-73
2022/12/17 23:56:35;;;;;;;23.30;15.55;;;;;;;-1.42;100.00;99864.37;1698054;83;20428;-72
2022/12/17 23:59:02;;;;;;;22.80;15.30;;;;;;;-1.48;100.00;99858.44;1755959;81;21018;-72
